Time;durP1;ratioP1;P1;durP2;ratioP2;P2;SDS_P1;SDS_P2;PMS_P1;PMS_P2;Temp;Humidity;BMP_temperature;BMP_pressure;BME280_temperature;BME280_humidity;BME280_pressure;Samples;Min_cycle;Max_cycle;Signal;HPM_P1;HPM_P2
2023/05/13 00:00:30;;;;;;;7.93;4.70;;;;;;;-146.25;74.54;52179.63;2096811;28;38593;-69
2023/05/13 00:01:37;;;;;;;9.05;4.55;;;;;;;-146.25;75.73;52161.38;2096555;28;33800;-70
2023/05/13 00:02:41;;;;;;;8.18;4.70;;;;;;;-146.25;75.13;52171.53;2096971;28;29453;-70
2023/05/13 00:03:43;;;;;;;6.90;4.18;;;;;;;-146.25;75.32;52183.69;2095702;28;35448;-70
2023/05/13 00:04:45;;;;;;;7.68;5.05;;;;;;;-146.25;76.29;52161.38;2096495;28;28186;-70
2023/05/13 00:05:46;;;;;;;6.03;4.63;;;;;;;-146.25;76.89;52177.59;2096485;28;33465;-70
2023/05/13 00:06:51;;;;;;;7.00;4.57;;;;;;;-146.25;77.72;52181.66;2096648;28;38237;-70
2023/05/13 00:07:52;;;;;;;8.90;5.65;;;;;;;-146.25;77.10;52137.06;2097225;28;20029;-69
2023/05/13 00:08:55;;;;;;;7.97;5.10;;;;;;;-146.25;77.62;52208.03;2096968;28;36224;-69
2023/05/13 00:09:56;;;;;;;7.15;5.38;;;;;;;-146.25;77.39;52159.34;2096865;28;29677;-69
2023/05/13 00:10:58;;;;;;;6.38;5.28;;;;;;;-146.25;77.70;52155.31;2097152;28;20987;-69
2023/05/13 00:12:02;;;;;;;6.95;4.90;;;;;;;-146.25;77.80;52193.81;2096423;28;38491;-69
2023/05/13 00:13:03;;;;;;;9.02;5.50;;;;;;;-146.25;78.50;52165.44;2097206;28;32446;-69
2023/05/13 00:14:08;;;;;;;7.18;4.88;;;;;;;-146.25;78.22;52181.66;2096505;28;34883;-69
2023/05/13 00:15:10;;;;;;;9.20;5.22;;;;;;;-146.25;78.43;52165.44;2095970;28;36331;-70
2023/05/13 00:16:12;;;;;;;7.45;5.55;;;;;;;-146.25;78.87;52165.44;2096028;28;33449;-70
2023/05/13 00:17:14;;;;;;;6.82;5.15;;;;;;;-146.25;79.24;52183.69;2096812;28;35377;-70
2023/05/13 00:18:18;;;;;;;7.65;4.93;;;;;;;-146.25;78.75;52155.31;2096542;28;34920;-70
2023/05/13 00:19:22;;;;;;;7.40;5.10;;;;;;;-146.25;79.09;52214.09;2096587;28;34620;-68
2023/05/13 00:20:24;;;;;;;7.25;5.63;;;;;;;-146.25;78.71;52189.78;2096300;28;38208;-69
2023/05/13 00:21:25;;;;;;;7.63;5.30;;;;;;;-146.25;79.63;52175.56;2096627;28;34859;-69
2023/05/13 00:22:29;;;;;;;6.07;5.32;;;;;;;-146.25;79.31;52183.69;2096410;28;36930;-68
2023/05/13 00:23:33;;;;;;;7.68;4.95;;;;;;;-146.25;79.42;52185.72;2096546;28;32594;-69
2023/05/13 00:24:35;;;;;;;10.02;5.60;;;;;;;-146.25;79.76;52206.00;2096537;28;35745;-70
2023/05/13 00:25:37;;;;;;;7.55;5.50;;;;;;;-146.25;79.65;52191.81;2097225;28;20037;-69
2023/05/13 00:26:39;;;;;;;7.63;5.20;;;;;;;-146.25;80.27;52153.28;2096243;28;37795;-71
2023/05/13 00:27:40;;;;;;;6.10;5.35;;;;;;;-146.25;80.12;52183.69;2096778;28;34833;-68
2023/05/13 00:28:42;;;;;;;7.90;5.63;;;;;;;-146.25;80.47;52185.72;2104807;28;20043;-68
2023/05/13 00:29:44;;;;;;;8.95;5.70;;;;;;;-146.25;80.98;52214.09;2104840;28;27616;-68
2023/05/13 00:30:46;;;;;;;5.85;5.07;;;;;;;-146.25;80.84;52206.00;2096625;28;29705;-68
2023/05/13 00:31:47;;;;;;;7.60;5.63;;;;;;;-146.25;81.49;52179.63;2096718;28;27981;-70
2023/05/13 00:32:49;;;;;;;6.20;5.43;;;;;;;-146.25;81.42;52187.75;2104402;28;20956;-69
2023/05/13 00:33:53;;;;;;;5.93;5.32;;;;;;;-146.25;81.16;52193.81;2104874;28;23725;-69
2023/05/13 00:34:55;;;;;;;9.23;5.63;;;;;;;-146.25;82.07;52181.66;2097280;28;20159;-69
2023/05/13 00:35:57;;;;;;;9.02;6.10;;;;;;;-146.25;82.19;52165.44;2096846;28;28719;-69
2023/05/13 00:36:59;;;;;;;7.15;5.50;;;;;;;-146.25;81.91;52151.25;2096864;28;26757;-69
2023/05/13 00:38:03;;;;;;;10.27;5.57;;;;;;;-146.25;82.14;52206.00;2097244;28;20230;-68
2023/05/13 00:39:05;;;;;;;7.07;5.63;;;;;;;-146.25;81.96;52173.56;2095739;28;30592;-69
2023/05/13 00:40:20;;;;;;;7.15;5.97;;;;;;;-146.25;82.88;52206.00;2088037;28;23000;-69
2023/05/13 00:41:24;;;;;;;8.20;5.50;;;;;;;-146.25;83.60;52179.63;2098161;28;20146;-69
2023/05/13 00:42:26;;;;;;;8.57;6.25;;;;;;;-146.25;83.39;52175.56;2102806;28;20883;-69
2023/05/13 00:43:29;;;;;;;7.95;6.55;;;;;;;-146.25;83.72;52163.41;2096568;28;20045;-69
2023/05/13 00:44:32;;;;;;;7.45;5.80;;;;;;;-146.25;83.98;52201.94;2096501;28;20076;-69
2023/05/13 00:45:38;;;;;;;7.93;6.22;;;;;;;-146.25;83.91;52210.03;2095922;28;27020;-69
2023/05/13 00:46:41;;;;;;;9.80;6.50;;;;;;;-146.25;83.76;52149.22;2096193;28;23235;-69
2023/05/13 00:47:43;;;;;;;7.70;6.00;;;;;;;-146.25;84.35;52210.03;2087969;28;32075;-68
2023/05/13 00:48:48;;;;;;;8.85;6.43;;;;;;;-146.25;84.70;52220.19;2096138;28;31673;-69
2023/05/13 00:49:53;;;;;;;8.05;6.10;;;;;;;-146.25;84.70;52169.50;2096000;28;30521;-69
2023/05/13 00:50:58;;;;;;;10.15;6.30;;;;;;;-146.25;84.35;52169.50;2097129;28;29425;-69
2023/05/13 00:52:00;;;;;;;7.63;6.22;;;;;;;-146.25;85.15;52151.25;2095092;28;36091;-68
2023/05/13 00:53:03;;;;;;;9.02;6.93;;;;;;;-146.25;84.58;52149.22;2095950;28;32096;-68
2023/05/13 00:54:05;;;;;;;7.15;6.45;;;;;;;-146.25;85.60;52171.53;2096766;28;20040;-68
2023/05/13 00:55:08;;;;;;;9.93;7.00;;;;;;;-146.25;85.02;52175.56;2096700;28;31692;-68
2023/05/13 00:56:10;;;;;;;8.20;6.38;;;;;;;-146.25;85.08;52197.88;2095631;28;20040;-68
2023/05/13 00:57:17;;;;;;;8.77;7.15;;;;;;;-146.25;85.15;52177.59;2096210;28;30205;-68
2023/05/13 00:58:18;;;;;;;6.90;6.20;;;;;;;-146.25;85.50;52173.56;2096551;28;20906;-69
2023/05/13 00:59:20;;;;;;;8.85;6.45;;;;;;;-146.25;85.46;52179.63;2095931;28;26318;-68
2023/05/13 01:00:22;;;;;;;7.70;6.90;;;;;;;-146.25;86.85;52173.56;2095696;28;28028;-69
2023/05/13 01:01:37;;;;;;;9.10;6.70;;;;;;;-146.25;86.46;52197.88;2096111;28;25751;-68
2023/05/13 01:02:47;;;;;;;9.68;7.13;;;;;;;-146.25;86.26;52199.91;2096509;28;32687;-69
2023/05/13 01:04:14;;;;;;;7.78;6.97;;;;;;;-146.25;85.84;52216.13;2096083;28;24417;-68
2023/05/13 01:05:42;;;;;;;7.70;6.38;;;;;;;-146.25;86.13;52177.59;2095803;28;34361;-69
2023/05/13 01:07:25;;;;;;;8.15;6.63;;;;;;;-146.25;86.99;52169.50;2096022;28;33939;-69
2023/05/13 01:09:16;;;;;;;9.30;6.50;;;;;;;-146.25;87.13;52167.47;2096265;28;20266;-69
2023/05/13 01:10:37;;;;;;;9.32;6.75;;;;;;;-146.25;87.72;52193.81;2086530;28;36207;-69
2023/05/13 01:11:41;;;;;;;9.95;7.10;;;;;;;-146.25;87.27;52165.44;2088531;28;20037;-69
2023/05/13 01:12:45;;;;;;;7.15;6.32;;;;;;;-146.25;87.16;52185.72;2087292;28;27030;-69
2023/05/13 01:14:00;;;;;;;9.85;7.43;;;;;;;-146.25;88.61;52179.63;2080222;28;20037;-69
2023/05/13 01:15:07;;;;;;;9.13;7.43;;;;;;;-146.25;88.42;52189.78;2087669;28;27744;-69
2023/05/13 01:16:26;;;;;;;10.35;6.75;;;;;;;-146.25;88.20;52177.59;2088027;28;35377;-68
2023/05/13 01:17:55;;;;;;;8.70;7.50;;;;;;;-146.25;88.63;52189.78;2088178;28;20049;-68
2023/05/13 01:19:05;;;;;;;7.80;6.80;;;;;;;-146.25;88.61;52240.47;2084700;28;20029;-69
2023/05/13 01:20:10;;;;;;;9.85;7.53;;;;;;;-146.25;89.29;52187.75;2085041;28;20842;-68
2023/05/13 01:21:12;;;;;;;10.68;7.63;;;;;;;-146.25;90.46;52175.56;2081129;28;23220;-69
2023/05/13 01:22:14;;;;;;;11.05;8.63;;;;;;;-146.25;90.51;52206.00;2071917;28;20073;-69
2023/05/13 01:23:16;;;;;;;8.80;7.70;;;;;;;-146.25;89.92;52208.03;2079318;28;20184;-69
2023/05/13 01:24:18;;;;;;;8.02;6.53;;;;;;;-146.25;90.48;52191.81;2080704;28;20156;-69
2023/05/13 01:25:19;;;;;;;10.73;7.53;;;;;;;-146.25;90.37;52179.63;2094905;28;33780;-68
2023/05/13 01:26:25;;;;;;;13.27;7.95;;;;;;;-146.25;89.96;52181.66;2096304;28;20949;-68
2023/05/13 01:27:27;;;;;;;11.65;7.50;;;;;;;-146.25;89.97;52230.31;2088045;28;23249;-68
2023/05/13 01:28:32;;;;;;;8.57;7.50;;;;;;;-146.25;90.42;52238.44;2088437;28;20152;-68
2023/05/13 01:29:37;;;;;;;10.32;7.68;;;;;;;-146.25;90.49;52203.97;2088321;28;20184;-68
2023/05/13 01:30:40;;;;;;;12.65;7.72;;;;;;;-146.25;90.74;52177.59;2078974;28;20927;-68
2023/05/13 01:31:45;;;;;;;8.80;7.30;;;;;;;-146.25;89.95;52177.59;2087538;28;20045;-69
2023/05/13 01:32:49;;;;;;;8.35;7.55;;;;;;;-146.25;90.99;52177.59;2096086;28;20103;-69
2023/05/13 01:33:51;;;;;;;8.20;7.25;;;;;;;-146.25;91.02;52159.34;2079698;28;20042;-69
2023/05/13 01:34:55;;;;;;;7.43;6.82;;;;;;;-146.25;90.79;52173.56;2080304;28;20061;-69
2023/05/13 01:35:59;;;;;;;10.77;7.65;;;;;;;-146.25;91.08;52203.97;2087872;28;20041;-68
2023/05/13 01:37:02;;;;;;;8.77;7.70;;;;;;;-146.25;90.73;52201.94;2096940;28;20052;-68
2023/05/13 01:38:07;;;;;;;8.77;7.90;;;;;;;-146.25;91.95;52189.78;2087694;28;20142;-69
2023/05/13 01:39:10;;;;;;;12.23;8.10;;;;;;;-146.25;91.81;52191.81;2088341;28;25668;-68
2023/05/13 01:40:12;;;;;;;9.85;7.47;;;;;;;-146.25;91.95;52206.00;2096063;28;20036;-67
2023/05/13 01:41:32;;;;;;;8.95;7.78;;;;;;;-146.25;92.11;52157.34;2095847;28;20163;-69
2023/05/13 01:42:35;;;;;;;9.20;8.23;;;;;;;-146.25;91.54;52185.72;2079666;28;20095;-69
2023/05/13 01:43:37;;;;;;;10.77;8.65;;;;;;;-146.25;92.12;52189.78;2079691;28;24556;-68
2023/05/13 01:44:40;;;;;;;10.35;8.20;;;;;;;-146.25;93.17;52232.34;2087985;28;20398;-68
2023/05/13 01:45:41;;;;;;;10.32;7.82;;;;;;;-146.25;92.47;52187.75;2095908;28;22284;-69
2023/05/13 01:46:46;;;;;;;8.90;8.00;;;;;;;-146.25;92.74;52195.84;2096399;28;20077;-69
2023/05/13 01:47:48;;;;;;;10.80;8.93;;;;;;;-146.25;93.23;52206.00;2087856;28;20831;-68
2023/05/13 01:48:50;;;;;;;10.27;8.00;;;;;;;-146.25;92.59;52185.72;2087687;28;20037;-68
2023/05/13 01:49:52;;;;;;;8.57;7.78;;;;;;;-146.25;93.39;52201.94;2095896;28;20134;-68
2023/05/13 01:50:55;;;;;;;9.55;8.55;;;;;;;-146.25;93.64;52210.03;2096207;28;20069;-68
2023/05/13 01:51:57;;;;;;;10.82;8.05;;;;;;;-146.25;93.86;52189.78;2087900;28;20859;-68
2023/05/13 01:53:01;;;;;;;12.02;8.18;;;;;;;-146.25;93.41;52248.56;2088108;28;20038;-68
2023/05/13 01:54:04;;;;;;;9.07;7.65;;;;;;;-146.25;93.92;52197.88;2087781;28;20037;-68
2023/05/13 01:55:08;;;;;;;9.93;8.70;;;;;;;-146.25;94.12;52149.22;2087946;28;20042;-69
2023/05/13 01:56:10;;;;;;;12.20;9.05;;;;;;;-146.25;94.79;52220.19;2087448;28;20041;-68
2023/05/13 01:57:12;;;;;;;12.43;8.88;;;;;;;-146.25;94.62;52177.59;2096158;28;20037;-69
2023/05/13 01:58:14;;;;;;;11.52;8.07;;;;;;;-146.25;94.05;52214.09;2095883;28;21017;-68
2023/05/13 01:59:16;;;;;;;11.95;9.07;;;;;;;-146.25;94.50;52187.75;2095559;28;20872;-68
2023/05/13 02:00:18;;;;;;;11.25;8.70;;;;;;;-146.25;95.25;52210.03;2094850;28;20048;-68
2023/05/13 02:01:22;;;;;;;11.20;8.88;;;;;;;-146.25;94.99;52189.78;2087733;28;20049;-68
2023/05/13 02:02:24;;;;;;;9.23;8.13;;;;;;;-146.25;94.93;52203.97;2087295;28;20773;-68
2023/05/13 02:03:26;;;;;;;10.38;8.80;;;;;;;-146.25;95.33;52216.13;2087564;28;20114;-68
2023/05/13 02:04:28;;;;;;;9.73;8.60;;;;;;;-146.25;94.79;52234.38;2087579;28;20180;-68
2023/05/13 02:05:31;;;;;;;10.68;8.98;;;;;;;-146.25;96.50;52181.66;2087607;28;20045;-68
2023/05/13 02:06:37;;;;;;;12.32;8.48;;;;;;;-146.25;95.18;52206.00;2088478;28;20129;-68
2023/05/13 02:07:39;;;;;;;12.88;8.90;;;;;;;-146.25;95.82;52220.19;2087845;28;20152;-67
2023/05/13 02:08:46;;;;;;;10.57;9.10;;;;;;;-146.25;95.64;52216.13;2087580;28;20041;-68
2023/05/13 02:09:47;;;;;;;12.70;9.10;;;;;;;-146.25;95.59;52222.22;2088061;28;20042;-68
2023/05/13 02:10:59;;;;;;;10.38;8.88;;;;;;;-146.25;96.30;52165.44;2079063;28;20938;-68
2023/05/13 02:12:03;;;;;;;12.13;8.73;;;;;;;-146.25;95.86;52193.81;2081163;28;20042;-68
2023/05/13 02:13:06;;;;;;;11.38;8.60;;;;;;;-146.25;95.95;52189.78;2087212;28;20180;-68
2023/05/13 02:14:11;;;;;;;10.07;8.70;;;;;;;-146.25;95.86;52189.78;2087763;28;32148;-68
2023/05/13 02:15:13;;;;;;;15.15;9.05;;;;;;;-146.25;95.45;52238.44;2087674;28;25742;-69
2023/05/13 02:16:19;;;;;;;10.65;8.95;;;;;;;-146.25;95.23;52210.03;2088510;28;20122;-68
2023/05/13 02:17:21;;;;;;;14.93;9.05;;;;;;;-146.25;96.41;52203.97;2087478;28;23921;-69
2023/05/13 02:18:23;;;;;;;11.55;8.68;;;;;;;-146.25;95.82;52203.97;2089287;28;20187;-68
2023/05/13 02:19:25;;;;;;;12.23;9.25;;;;;;;-146.25;96.37;52234.38;2080534;28;20151;-69
2023/05/13 02:20:27;;;;;;;11.02;9.13;;;;;;;-146.25;95.92;52214.09;2089015;28;30211;-69
2023/05/13 02:21:31;;;;;;;11.73;9.25;;;;;;;-146.25;96.12;52208.03;2089392;28;20788;-69
2023/05/13 02:22:33;;;;;;;9.60;8.60;;;;;;;-146.25;95.99;52212.06;2088762;28;22396;-68
2023/05/13 02:23:37;;;;;;;11.13;9.30;;;;;;;-146.25;96.31;52189.78;2088354;28;28811;-68
2023/05/13 02:24:41;;;;;;;15.20;8.70;;;;;;;-146.25;97.36;52214.09;2091482;28;27080;-69
2023/05/13 02:25:43;;;;;;;10.88;8.95;;;;;;;-146.25;96.87;52201.94;2100885;28;20045;-69
2023/05/13 02:26:46;;;;;;;14.15;8.73;;;;;;;-146.25;96.92;52175.56;2105418;28;26646;-67
2023/05/13 02:27:51;;;;;;;13.88;9.48;;;;;;;-146.25;97.55;52212.06;2096939;28;22646;-69
2023/05/13 02:28:56;;;;;;;10.40;9.23;;;;;;;-146.25;96.55;52177.59;2097445;28;20126;-69
2023/05/13 02:29:58;;;;;;;11.65;8.88;;;;;;;-146.25;97.05;52191.81;2080800;28;20863;-69
2023/05/13 02:31:00;;;;;;;12.23;9.30;;;;;;;-146.25;97.15;52175.56;2081549;28;20072;-69
2023/05/13 02:32:02;;;;;;;12.07;9.18;;;;;;;-146.25;97.22;52199.91;2089322;28;20060;-68
2023/05/13 02:33:05;;;;;;;11.45;8.82;;;;;;;-146.25;97.34;52175.56;2097373;28;20088;-69
2023/05/13 02:34:08;;;;;;;11.38;9.48;;;;;;;-146.25;98.15;52181.66;2097170;28;20126;-68
2023/05/13 02:35:09;;;;;;;10.73;9.40;;;;;;;-146.25;97.52;52201.94;2088949;28;20349;-69
2023/05/13 02:36:11;;;;;;;12.52;9.52;;;;;;;-146.25;96.85;52214.09;2087977;28;20041;-68
2023/05/13 02:37:13;;;;;;;11.00;9.40;;;;;;;-146.25;98.15;52218.16;2088982;28;20112;-68
2023/05/13 02:38:22;;;;;;;9.10;8.18;;;;;;;-146.25;97.16;52193.81;2097934;28;20906;-69
2023/05/13 02:39:24;;;;;;;11.77;9.90;;;;;;;-146.25;97.72;52244.50;2104784;28;28631;-69
2023/05/13 02:40:27;;;;;;;12.55;9.27;;;;;;;-146.25;97.95;52220.19;2096930;28;20044;-69
2023/05/13 02:41:29;;;;;;;11.65;9.35;;;;;;;-146.25;97.58;52165.44;2088616;28;20156;-68
2023/05/13 02:42:31;;;;;;;11.02;9.80;;;;;;;-146.25;98.22;52175.56;2079900;28;24274;-69
2023/05/13 02:43:33;;;;;;;11.50;9.38;;;;;;;-146.25;98.60;52232.34;2080842;28;25564;-68
2023/05/13 02:44:39;;;;;;;12.60;9.00;;;;;;;-146.25;97.81;52230.31;2089497;28;20447;-69
2023/05/13 02:45:41;;;;;;;12.93;9.07;;;;;;;-146.25;97.58;52212.06;2089100;28;20081;-68
2023/05/13 02:46:44;;;;;;;11.30;8.93;;;;;;;-146.25;97.83;52181.66;2088719;28;20048;-68
2023/05/13 02:47:46;;;;;;;11.52;9.00;;;;;;;-146.25;98.17;52208.03;2088948;28;20065;-69
2023/05/13 02:48:48;;;;;;;11.25;10.15;;;;;;;-146.25;98.88;52199.91;2088642;28;20049;-68
2023/05/13 02:49:49;;;;;;;12.85;9.75;;;;;;;-146.25;99.16;52197.88;2089015;28;20045;-69
2023/05/13 02:50:51;;;;;;;14.02;9.55;;;;;;;-146.25;99.72;52218.16;2095869;28;20865;-68
2023/05/13 02:51:53;;;;;;;11.95;9.85;;;;;;;-146.25;99.37;52214.09;2096945;28;20045;-68
2023/05/13 02:53:01;;;;;;;10.60;9.23;;;;;;;-146.25;99.42;52214.09;2089289;28;20103;-69
2023/05/13 02:54:04;;;;;;;11.05;9.75;;;;;;;-146.25;99.65;52254.66;2097817;28;20049;-68
2023/05/13 02:55:07;;;;;;;10.63;9.25;;;;;;;-146.25;99.74;52185.72;2096500;28;20049;-68
2023/05/13 02:56:10;;;;;;;10.95;9.65;;;;;;;-146.25;99.52;52212.06;2080515;28;20034;-68
2023/05/13 02:57:12;;;;;;;13.60;9.43;;;;;;;-146.25;99.26;52195.84;2080969;28;20108;-67
2023/05/13 02:58:16;;;;;;;15.98;10.60;;;;;;;-146.25;99.29;52189.78;2088848;28;20034;-68
2023/05/13 02:59:18;;;;;;;13.00;9.90;;;;;;;-146.25;99.26;52218.16;2088806;28;20077;-68
2023/05/13 03:00:23;;;;;;;12.00;9.65;;;;;;;-146.25;100.00;52193.81;2096819;28;22933;-68
2023/05/13 03:01:25;;;;;;;13.88;9.43;;;;;;;-146.25;99.86;52197.88;2095884;28;30060;-68
2023/05/13 03:02:27;;;;;;;12.43;9.73;;;;;;;-146.25;100.00;52203.97;2096686;28;20041;-68
2023/05/13 03:03:29;;;;;;;11.07;9.85;;;;;;;-146.25;99.42;52214.09;2096845;28;20037;-68
2023/05/13 03:04:31;;;;;;;13.02;9.27;;;;;;;-146.25;98.79;52179.63;2096768;28;32262;-69
2023/05/13 03:05:33;;;;;;;11.35;10.02;;;;;;;-146.25;100.00;52206.00;2089224;28;20160;-68
2023/05/13 03:06:35;;;;;;;11.90;10.00;;;;;;;-146.25;100.00;52189.78;2088330;28;27387;-68
2023/05/13 03:07:36;;;;;;;11.93;10.18;;;;;;;-146.25;100.00;52210.03;2087954;28;29002;-69
2023/05/13 03:08:38;;;;;;;16.08;10.65;;;;;;;-146.25;100.00;52244.50;2088734;28;20172;-69
2023/05/13 03:09:41;;;;;;;11.18;9.27;;;;;;;-146.25;99.96;52183.69;2088445;28;27096;-68
2023/05/13 03:10:42;;;;;;;13.30;10.00;;;;;;;-146.25;100.00;52171.53;2087943;28;35093;-69
2023/05/13 03:11:46;;;;;;;12.18;9.93;;;;;;;-146.25;100.00;52214.09;2088744;28;20853;-69
2023/05/13 03:12:48;;;;;;;13.23;9.68;;;;;;;-146.25;100.00;52260.72;2096784;28;23974;-69
2023/05/13 03:13:49;;;;;;;11.93;10.35;;;;;;;-146.25;100.00;52197.88;2088357;28;20580;-68
2023/05/13 03:14:51;;;;;;;11.63;10.43;;;;;;;-146.25;100.00;52226.25;2088477;28;26598;-68
2023/05/13 03:15:53;;;;;;;11.90;10.05;;;;;;;-146.25;100.00;52226.25;2089308;28;20041;-68
2023/05/13 03:16:55;;;;;;;11.43;9.68;;;;;;;-146.25;100.00;52199.91;2089122;28;20107;-69
2023/05/13 03:17:56;;;;;;;13.52;10.80;;;;;;;-146.25;100.00;52224.25;2088222;28;20053;-68
2023/05/13 03:18:59;;;;;;;12.80;10.48;;;;;;;-146.25;100.00;52222.22;2088481;28;20168;-69
2023/05/13 03:20:01;;;;;;;12.98;10.40;;;;;;;-146.25;100.00;52187.75;2088480;28;21004;-69
2023/05/13 03:21:03;;;;;;;11.93;10.65;;;;;;;-146.25;100.00;52195.84;2097165;28;20378;-68
2023/05/13 03:22:05;;;;;;;11.45;9.88;;;;;;;-146.25;100.00;52216.13;2088366;28;20896;-68
2023/05/13 03:23:07;;;;;;;11.50;10.18;;;;;;;-146.25;100.00;52210.03;2088750;28;20168;-68
2023/05/13 03:24:10;;;;;;;12.48;10.00;;;;;;;-146.25;100.00;52262.75;2096736;28;20091;-69
2023/05/13 03:25:14;;;;;;;12.75;10.48;;;;;;;-146.25;100.00;52210.03;2098462;28;20052;-69
2023/05/13 03:26:23;;;;;;;14.27;10.32;;;;;;;-146.25;100.00;52201.94;2096684;28;20037;-68
2023/05/13 03:27:27;;;;;;;11.35;9.95;;;;;;;-146.25;100.00;52185.72;2097949;28;35457;-68
2023/05/13 03:28:31;;;;;;;12.55;10.18;;;;;;;-146.25;100.00;52226.25;2096455;28;20073;-69
2023/05/13 03:29:33;;;;;;;11.73;10.43;;;;;;;-146.25;100.00;52181.66;2096388;28;20186;-68
2023/05/13 03:30:35;;;;;;;15.40;11.15;;;;;;;-146.25;100.00;52197.88;2096706;28;20173;-69
2023/05/13 03:31:41;;;;;;;14.55;10.68;;;;;;;-146.25;100.00;52218.16;2089218;28;20115;-68
2023/05/13 03:32:46;;;;;;;12.38;9.90;;;;;;;-146.25;100.00;52230.31;2097203;28;20345;-68
2023/05/13 03:33:48;;;;;;;12.25;9.90;;;;;;;-146.25;100.00;52212.06;2096881;28;20844;-69
2023/05/13 03:34:50;;;;;;;13.68;9.75;;;;;;;-146.25;100.00;52220.19;2088555;28;20041;-68
2023/05/13 03:35:52;;;;;;;14.95;9.73;;;;;;;-146.25;100.00;52226.25;2096811;28;20999;-68
2023/05/13 03:36:59;;;;;;;11.77;10.30;;;;;;;-146.25;100.00;52218.16;2096765;28;20041;-69
2023/05/13 03:38:02;;;;;;;12.00;10.35;;;;;;;-146.25;100.00;52218.16;2096999;28;20898;-69
2023/05/13 03:39:04;;;;;;;11.98;9.93;;;;;;;-146.25;100.00;52173.56;2097198;28;20037;-69
2023/05/13 03:40:07;;;;;;;12.75;10.52;;;;;;;-146.25;100.00;52203.97;2088405;28;20135;-69
2023/05/13 03:41:10;;;;;;;13.02;10.50;;;;;;;-146.25;100.00;52226.25;2089130;28;20052;-69
2023/05/13 03:42:12;;;;;;;13.48;10.32;;;;;;;-146.25;100.00;52230.31;2096973;28;20079;-69
2023/05/13 03:43:14;;;;;;;13.73;10.65;;;;;;;-146.25;100.00;52226.25;2088233;28;20122;-68
2023/05/13 03:44:19;;;;;;;12.65;10.63;;;;;;;-146.25;100.00;52210.03;2081626;28;20961;-68
2023/05/13 03:45:21;;;;;;;13.10;10.63;;;;;;;-146.25;100.00;52234.38;2088784;28;20887;-68
2023/05/13 03:46:28;;;;;;;11.55;10.43;;;;;;;-146.25;100.00;52193.81;2088977;28;20042;-69
2023/05/13 03:47:30;;;;;;;13.82;10.98;;;;;;;-146.25;100.00;52222.22;2088469;28;25801;-69
2023/05/13 03:48:36;;;;;;;14.63;10.73;;;;;;;-146.25;100.00;52218.16;2080344;28;20042;-68
2023/05/13 03:49:38;;;;;;;13.10;11.15;;;;;;;-146.25;100.00;52218.16;2081513;28;20053;-68
2023/05/13 03:50:41;;;;;;;12.40;11.10;;;;;;;-146.25;100.00;52238.44;2096656;28;20032;-68
2023/05/13 03:51:42;;;;;;;14.82;11.90;;;;;;;-146.25;100.00;52214.09;2096938;28;20052;-68
2023/05/13 03:52:45;;;;;;;13.10;11.27;;;;;;;-146.25;100.00;52185.72;2088497;28;20041;-68
2023/05/13 03:53:48;;;;;;;12.82;11.43;;;;;;;-146.25;100.00;52210.03;2088761;28;20045;-68
2023/05/13 03:54:50;;;;;;;13.20;11.45;;;;;;;-146.25;100.00;52222.22;2088455;28;20111;-68
2023/05/13 03:55:52;;;;;;;13.05;11.68;;;;;;;-146.25;100.00;52234.38;2096074;28;20987;-68
2023/05/13 03:56:54;;;;;;;15.23;11.90;;;;;;;-146.25;100.00;52201.94;2097185;28;20045;-67
2023/05/13 03:57:57;;;;;;;14.32;10.90;;;;;;;-146.25;100.00;52222.22;2097233;28;20033;-67
2023/05/13 03:58:59;;;;;;;12.88;11.18;;;;;;;-146.25;100.00;52228.28;2096909;28;27005;-67
2023/05/13 04:00:01;;;;;;;12.23;11.02;;;;;;;-146.25;100.00;52206.00;2096498;28;20037;-66
2023/05/13 04:01:06;;;;;;;15.00;11.70;;;;;;;-146.25;100.00;52199.91;2096621;28;20044;-68
2023/05/13 04:02:08;;;;;;;12.77;11.00;;;;;;;-146.25;100.00;52218.16;2104253;28;20044;-69
2023/05/13 04:03:10;;;;;;;12.93;11.63;;;;;;;-146.25;100.00;52234.38;2104604;28;20048;-69
2023/05/13 04:04:11;;;;;;;12.38;10.85;;;;;;;-146.25;100.00;52185.72;2104320;28;23841;-69
2023/05/13 04:05:13;;;;;;;13.88;11.73;;;;;;;-146.25;100.00;52199.91;2104376;28;20083;-69
2023/05/13 04:06:15;;;;;;;13.65;10.93;;;;;;;-146.25;100.00;52234.38;2104722;28;20766;-69
2023/05/13 04:07:20;;;;;;;13.10;11.25;;;;;;;-146.25;100.00;52197.88;2095746;28;20041;-69
2023/05/13 04:08:24;;;;;;;12.00;10.73;;;;;;;-146.25;100.00;52203.97;2096202;28;23264;-69
2023/05/13 04:09:26;;;;;;;16.05;10.85;;;;;;;-146.25;100.00;52214.09;2096049;28;23319;-68
2023/05/13 04:10:27;;;;;;;12.57;11.27;;;;;;;-146.25;100.00;52226.25;2103905;28;30230;-69
2023/05/13 04:11:31;;;;;;;12.27;10.85;;;;;;;-146.25;99.28;52236.41;2103716;28;20143;-69
2023/05/13 04:12:33;;;;;;;10.80;9.70;;;;;;;-146.25;97.93;52248.56;2096353;28;23304;-69
2023/05/13 04:13:35;;;;;;;11.50;9.90;;;;;;;-146.25;95.48;52252.63;2104803;28;21961;-67
2023/05/13 04:14:37;;;;;;;12.50;9.95;;;;;;;-146.25;93.97;52216.13;2097451;28;20048;-68
2023/05/13 04:15:39;;;;;;;10.80;9.48;;;;;;;-146.25;90.91;52220.19;2095818;28;31906;-69
2023/05/13 04:16:40;;;;;;;10.23;8.80;;;;;;;-146.25;89.09;52206.00;2096288;28;23839;-69
2023/05/13 04:17:42;;;;;;;10.88;8.68;;;;;;;-146.25;88.54;52234.38;2104642;28;20041;-67
2023/05/13 04:18:44;;;;;;;11.90;8.82;;;;;;;-146.25;85.88;52218.16;2104885;28;27152;-68
2023/05/13 04:19:46;;;;;;;8.45;7.75;;;;;;;-146.25;84.04;52232.34;2097397;28;20898;-68
2023/05/13 04:20:47;;;;;;;9.15;7.97;;;;;;;-146.25;82.17;52232.34;2096981;28;32293;-70
2023/05/13 04:21:49;;;;;;;8.65;7.82;;;;;;;-146.25;81.04;52216.13;2096208;28;20032;-69
2023/05/13 04:22:51;;;;;;;11.23;6.95;;;;;;;-146.25;79.16;52191.81;2087983;28;20169;-68
2023/05/13 04:23:53;;;;;;;11.13;7.93;;;;;;;-146.25;78.71;52193.81;2088096;28;33282;-67
2023/05/13 04:24:56;;;;;;;9.57;7.43;;;;;;;-146.25;77.51;52252.63;2088185;28;20040;-68
2023/05/13 04:25:57;;;;;;;7.60;6.65;;;;;;;-146.25;73.28;52226.25;2096420;28;20045;-68
2023/05/13 04:26:59;;;;;;;8.95;6.95;;;;;;;-146.25;73.57;52238.44;2096472;28;20883;-68
2023/05/13 04:28:03;;;;;;;10.93;7.05;;;;;;;-146.25;72.04;52234.38;2088326;28;20150;-68
2023/05/13 04:29:08;;;;;;;10.60;6.93;;;;;;;-146.25;70.26;52232.34;2088928;28;20168;-68
2023/05/13 04:30:10;;;;;;;8.07;6.95;;;;;;;-146.25;70.37;52242.50;2096280;28;20052;-69
2023/05/13 04:31:13;;;;;;;9.27;6.47;;;;;;;-146.25;68.65;52201.94;2096417;28;20166;-68
2023/05/13 04:32:20;;;;;;;10.05;6.85;;;;;;;-146.25;67.35;52238.44;2096386;28;20041;-70
2023/05/13 04:33:27;;;;;;;8.13;6.45;;;;;;;-146.25;66.75;52246.53;2104935;28;20918;-69
2023/05/13 04:34:29;;;;;;;7.70;6.68;;;;;;;-146.25;66.48;52203.97;2104276;28;21302;-69
2023/05/13 04:35:31;;;;;;;8.45;5.93;;;;;;;-146.25;66.67;52203.97;2096357;28;20033;-69
2023/05/13 04:36:37;;;;;;;8.30;5.70;;;;;;;-146.25;66.38;52252.63;2088175;28;20903;-69
2023/05/13 04:37:39;;;;;;;6.78;5.97;;;;;;;-146.25;66.50;52203.97;2097018;28;20037;-69
2023/05/13 04:38:43;;;;;;;9.27;6.07;;;;;;;-146.25;64.94;52201.94;2096353;28;20056;-69
2023/05/13 04:39:46;;;;;;;6.90;5.70;;;;;;;-146.25;63.10;52175.56;2088389;28;20171;-68
2023/05/13 04:40:49;;;;;;;7.15;5.78;;;;;;;-146.25;61.71;52220.19;2087901;28;20468;-68
2023/05/13 04:41:56;;;;;;;8.02;6.13;;;;;;;-146.25;62.05;52226.25;2097215;28;20238;-68
2023/05/13 04:43:01;;;;;;;8.90;5.88;;;;;;;-146.25;60.85;52199.91;2096285;28;20053;-69
2023/05/13 04:44:07;;;;;;;7.20;5.50;;;;;;;-146.25;59.89;52199.91;2097693;28;20037;-68
2023/05/13 04:45:09;;;;;;;6.35;5.57;;;;;;;-146.25;58.01;52169.50;2104776;28;20048;-68
2023/05/13 04:46:11;;;;;;;8.43;5.70;;;;;;;-146.25;59.06;52201.94;2105009;28;20054;-68
2023/05/13 04:47:13;;;;;;;7.47;6.28;;;;;;;-146.25;57.78;52195.84;2104358;28;24938;-69
2023/05/13 04:48:18;;;;;;;6.75;5.10;;;;;;;-146.25;57.33;52191.81;2096353;28;20041;-68
2023/05/13 04:49:19;;;;;;;8.77;5.63;;;;;;;-146.25;56.45;52163.41;2095587;28;30324;-69
2023/05/13 04:50:21;;;;;;;6.43;5.75;;;;;;;-146.25;54.39;52212.06;2096374;28;20099;-68